sensor_id;sensor_type;location;lat;lon;timestamp;temperature;humidity
77523;SHT31;66637;-29.628;-49.938;2023-12-14T00:00:53;22.02;88.60
77523;SHT31;66637;-29.628;-49.938;2023-12-14T00:03:39;22.01;88.66
77523;SHT31;66637;-29.628;-49.938;2023-12-14T00:06:15;21.97;88.65
77523;SHT31;66637;-29.628;-49.938;2023-12-14T00:08:55;21.94;88.65
77523;SHT31;66637;-29.628;-49.938;2023-12-14T00:11:32;21.92;88.71
77523;SHT31;66637;-29.628;-49.938;2023-12-14T00:14:13;21.91;88.87
77523;SHT31;66637;-29.628;-49.938;2023-12-14T00:16:57;21.87;88.80
77523;SHT31;66637;-29.628;-49.938;2023-12-14T00:19:35;21.91;88.74
77523;SHT31;66637;-29.628;-49.938;2023-12-14T00:22:38;21.87;88.99
77523;SHT31;66637;-29.628;-49.938;2023-12-14T00:25:27;21.82;88.98
77523;SHT31;66637;-29.628;-49.938;2023-12-14T00:28:04;21.78;88.93
77523;SHT31;66637;-29.628;-49.938;2023-12-14T00:30:44;21.87;88.70
77523;SHT31;66637;-29.628;-49.938;2023-12-14T00:33:30;21.73;89.06
77523;SHT31;66637;-29.628;-49.938;2023-12-14T00:36:02;21.74;89.07
77523;SHT31;66637;-29.628;-49.938;2023-12-14T00:38:41;21.75;89.07
77523;SHT31;66637;-29.628;-49.938;2023-12-14T00:41:42;21.74;89.11
77523;SHT31;66637;-29.628;-49.938;2023-12-14T00:44:18;21.77;88.98
77523;SHT31;66637;-29.628;-49.938;2023-12-14T00:46:59;21.73;88.96
77523;SHT31;66637;-29.628;-49.938;2023-12-14T00:49:56;21.70;89.02
77523;SHT31;66637;-29.628;-49.938;2023-12-14T00:52:47;21.68;89.02
77523;SHT31;66637;-29.628;-49.938;2023-12-14T00:55:37;21.67;89.02
77523;SHT31;66637;-29.628;-49.938;2023-12-14T00:58:19;21.67;89.01
77523;SHT31;66637;-29.628;-49.938;2023-12-14T01:01:03;21.62;89.01
77523;SHT31;66637;-29.628;-49.938;2023-12-14T01:03:48;21.62;89.03
77523;SHT31;66637;-29.628;-49.938;2023-12-14T01:06:32;21.57;89.05
77523;SHT31;66637;-29.628;-49.938;2023-12-14T01:09:21;21.55;89.17
77523;SHT31;66637;-29.628;-49.938;2023-12-14T01:12:17;21.60;89.21
77523;SHT31;66637;-29.628;-49.938;2023-12-14T01:14:56;21.58;89.28
77523;SHT31;66637;-29.628;-49.938;2023-12-14T01:18:11;21.61;89.23
77523;SHT31;66637;-29.628;-49.938;2023-12-14T01:20:56;21.60;89.28
77523;SHT31;66637;-29.628;-49.938;2023-12-14T01:23:43;21.60;89.25
77523;SHT31;66637;-29.628;-49.938;2023-12-14T01:26:27;21.58;89.28
77523;SHT31;66637;-29.628;-49.938;2023-12-14T01:29:06;21.58;89.37
77523;SHT31;66637;-29.628;-49.938;2023-12-14T01:31:42;21.60;89.33
77523;SHT31;66637;-29.628;-49.938;2023-12-14T01:34:24;21.58;89.26
77523;SHT31;66637;-29.628;-49.938;2023-12-14T01:37:16;21.58;89.28
77523;SHT31;66637;-29.628;-49.938;2023-12-14T01:39:56;21.54;89.25
77523;SHT31;66637;-29.628;-49.938;2023-12-14T01:42:30;21.51;89.12
77523;SHT31;66637;-29.628;-49.938;2023-12-14T01:45:11;21.53;89.11
77523;SHT31;66637;-29.628;-49.938;2023-12-14T01:48:18;21.48;89.27
77523;SHT31;66637;-29.628;-49.938;2023-12-14T01:51:03;21.53;89.20
77523;SHT31;66637;-29.628;-49.938;2023-12-14T01:53:42;21.53;89.18
77523;SHT31;66637;-29.628;-49.938;2023-12-14T01:56:26;21.53;89.09
77523;SHT31;66637;-29.628;-49.938;2023-12-14T01:59:10;21.48;89.17
77523;SHT31;66637;-29.628;-49.938;2023-12-14T02:02:13;21.48;89.14
77523;SHT31;66637;-29.628;-49.938;2023-12-14T02:05:06;21.54;89.14
77523;SHT31;66637;-29.628;-49.938;2023-12-14T02:07:50;21.57;89.05
77523;SHT31;66637;-29.628;-49.938;2023-12-14T02:10:36;21.55;88.98
77523;SHT31;66637;-29.628;-49.938;2023-12-14T02:13:15;21.53;89.02
77523;SHT31;66637;-29.628;-49.938;2023-12-14T02:16:05;21.51;89.05
77523;SHT31;66637;-29.628;-49.938;2023-12-14T02:18:44;21.46;89.09
77523;SHT31;66637;-29.628;-49.938;2023-12-14T02:21:28;21.43;89.29
77523;SHT31;66637;-29.628;-49.938;2023-12-14T02:24:24;21.41;89.34
77523;SHT31;66637;-29.628;-49.938;2023-12-14T02:27:15;21.38;89.46
77523;SHT31;66637;-29.628;-49.938;2023-12-14T02:30:08;21.38;89.40
77523;SHT31;66637;-29.628;-49.938;2023-12-14T02:32:43;21.37;89.56
77523;SHT31;66637;-29.628;-49.938;2023-12-14T02:35:21;21.34;89.58
77523;SHT31;66637;-29.628;-49.938;2023-12-14T02:38:21;21.29;89.71
77523;SHT31;66637;-29.628;-49.938;2023-12-14T02:40:58;21.29;89.80
77523;SHT31;66637;-29.628;-49.938;2023-12-14T02:43:50;21.30;89.83
77523;SHT31;66637;-29.628;-49.938;2023-12-14T02:46:37;21.30;89.78
77523;SHT31;66637;-29.628;-49.938;2023-12-14T02:49:25;21.29;89.88
77523;SHT31;66637;-29.628;-49.938;2023-12-14T02:52:23;21.34;89.30
77523;SHT31;66637;-29.628;-49.938;2023-12-14T02:55:12;21.30;89.91
77523;SHT31;66637;-29.628;-49.938;2023-12-14T02:58:20;21.38;89.98
77523;SHT31;66637;-29.628;-49.938;2023-12-14T03:00:53;21.53;89.67
77523;SHT31;66637;-29.628;-49.938;2023-12-14T03:03:32;21.57;89.94
77523;SHT31;66637;-29.628;-49.938;2023-12-14T03:06:16;21.58;89.90
77523;SHT31;66637;-29.628;-49.938;2023-12-14T03:09:08;21.61;89.82
77523;SHT31;66637;-29.628;-49.938;2023-12-14T03:11:51;21.58;89.83
77523;SHT31;66637;-29.628;-49.938;2023-12-14T03:14:32;21.44;89.79
77523;SHT31;66637;-29.628;-49.938;2023-12-14T03:17:11;21.38;89.88
77523;SHT31;66637;-29.628;-49.938;2023-12-14T03:20:01;21.34;89.84
77523;SHT31;66637;-29.628;-49.938;2023-12-14T03:22:42;21.27;90.06
77523;SHT31;66637;-29.628;-49.938;2023-12-14T03:25:39;21.23;90.09
77523;SHT31;66637;-29.628;-49.938;2023-12-14T03:28:31;21.27;90.18
77523;SHT31;66637;-29.628;-49.938;2023-12-14T03:31:18;21.27;90.24
77523;SHT31;66637;-29.628;-49.938;2023-12-14T03:33:58;21.29;90.22
77523;SHT31;66637;-29.628;-49.938;2023-12-14T03:36:36;21.23;90.16
77523;SHT31;66637;-29.628;-49.938;2023-12-14T03:39:30;21.19;90.18
77523;SHT31;66637;-29.628;-49.938;2023-12-14T03:42:27;21.16;90.10
77523;SHT31;66637;-29.628;-49.938;2023-12-14T03:45:26;21.17;90.12
77523;SHT31;66637;-29.628;-49.938;2023-12-14T03:48:10;21.14;90.11
77523;SHT31;66637;-29.628;-49.938;2023-12-14T03:50:47;21.14;90.05
77523;SHT31;66637;-29.628;-49.938;2023-12-14T03:53:27;21.14;90.11
77523;SHT31;66637;-29.628;-49.938;2023-12-14T03:56:19;21.13;90.08
77523;SHT31;66637;-29.628;-49.938;2023-12-14T03:59:20;21.13;90.05
77523;SHT31;66637;-29.628;-49.938;2023-12-14T04:02:13;21.20;89.91
77523;SHT31;66637;-29.628;-49.938;2023-12-14T04:04:54;21.10;90.16
77523;SHT31;66637;-29.628;-49.938;2023-12-14T04:07:31;21.10;90.32
77523;SHT31;66637;-29.628;-49.938;2023-12-14T04:10:30;21.16;90.31
77523;SHT31;66637;-29.628;-49.938;2023-12-14T04:13:07;21.22;90.03
77523;SHT31;66637;-29.628;-49.938;2023-12-14T04:15:49;21.14;90.22
77523;SHT31;66637;-29.628;-49.938;2023-12-14T04:18:27;21.13;90.32
77523;SHT31;66637;-29.628;-49.938;2023-12-14T04:21:06;21.13;90.38
77523;SHT31;66637;-29.628;-49.938;2023-12-14T04:23:46;21.14;90.46
77523;SHT31;66637;-29.628;-49.938;2023-12-14T04:26:27;21.14;90.53
77523;SHT31;66637;-29.628;-49.938;2023-12-14T04:29:06;21.17;90.43
77523;SHT31;66637;-29.628;-49.938;2023-12-14T04:32:25;21.16;90.38
77523;SHT31;66637;-29.628;-49.938;2023-12-14T04:35:14;21.22;90.20
77523;SHT31;66637;-29.628;-49.938;2023-12-14T04:38:02;21.11;90.39
77523;SHT31;66637;-29.628;-49.938;2023-12-14T04:40:41;21.06;90.48
77523;SHT31;66637;-29.628;-49.938;2023-12-14T04:43:22;21.06;90.52
77523;SHT31;66637;-29.628;-49.938;2023-12-14T04:46:18;21.03;90.65
77523;SHT31;66637;-29.628;-49.938;2023-12-14T04:49:02;21.03;90.71
77523;SHT31;66637;-29.628;-49.938;2023-12-14T04:51:49;21.03;90.72
77523;SHT31;66637;-29.628;-49.938;2023-12-14T04:54:34;21.02;90.83
77523;SHT31;66637;-29.628;-49.938;2023-12-14T04:57:14;21.02;90.86
77523;SHT31;66637;-29.628;-49.938;2023-12-14T04:59:51;21.03;90.94
77523;SHT31;66637;-29.628;-49.938;2023-12-14T05:02:31;21.04;90.96
77523;SHT31;66637;-29.628;-49.938;2023-12-14T05:05:13;21.04;90.98
77523;SHT31;66637;-29.628;-49.938;2023-12-14T05:08:23;21.02;91.02
77523;SHT31;66637;-29.628;-49.938;2023-12-14T05:11:14;21.04;91.01
77523;SHT31;66637;-29.628;-49.938;2023-12-14T05:13:58;20.99;91.02
77523;SHT31;66637;-29.628;-49.938;2023-12-14T05:17:22;20.92;91.05
77523;SHT31;66637;-29.628;-49.938;2023-12-14T05:20:08;20.86;91.08
77523;SHT31;66637;-29.628;-49.938;2023-12-14T05:23:00;20.85;91.15
77523;SHT31;66637;-29.628;-49.938;2023-12-14T05:25:40;20.87;91.08
77523;SHT31;66637;-29.628;-49.938;2023-12-14T05:28:19;20.89;91.14
77523;SHT31;66637;-29.628;-49.938;2023-12-14T05:30:59;20.87;91.01
77523;SHT31;66637;-29.628;-49.938;2023-12-14T05:33:39;20.89;91.13
77523;SHT31;66637;-29.628;-49.938;2023-12-14T05:36:24;20.87;91.05
77523;SHT31;66637;-29.628;-49.938;2023-12-14T05:39:46;20.89;91.09
77523;SHT31;66637;-29.628;-49.938;2023-12-14T05:42:23;20.89;91.17
77523;SHT31;66637;-29.628;-49.938;2023-12-14T05:44:55;20.93;90.81
77523;SHT31;66637;-29.628;-49.938;2023-12-14T05:47:32;20.92;90.96
77523;SHT31;66637;-29.628;-49.938;2023-12-14T05:50:31;20.93;90.97
77523;SHT31;66637;-29.628;-49.938;2023-12-14T05:53:24;20.92;90.98
77523;SHT31;66637;-29.628;-49.938;2023-12-14T05:56:07;20.97;91.01
77523;SHT31;66637;-29.628;-49.938;2023-12-14T05:59:13;20.95;90.95
77523;SHT31;66637;-29.628;-49.938;2023-12-14T06:01:50;20.95;91.03
77523;SHT31;66637;-29.628;-49.938;2023-12-14T06:04:41;20.99;90.96
77523;SHT31;66637;-29.628;-49.938;2023-12-14T06:07:33;21.02;91.00
77523;SHT31;66637;-29.628;-49.938;2023-12-14T06:10:09;21.02;90.98
77523;SHT31;66637;-29.628;-49.938;2023-12-14T06:13:22;21.03;91.00
77523;SHT31;66637;-29.628;-49.938;2023-12-14T06:16:14;21.07;91.09
77523;SHT31;66637;-29.628;-49.938;2023-12-14T06:18:58;21.09;91.05
77523;SHT31;66637;-29.628;-49.938;2023-12-14T06:21:45;21.07;91.12
77523;SHT31;66637;-29.628;-49.938;2023-12-14T06:24:57;21.07;91.16
77523;SHT31;66637;-29.628;-49.938;2023-12-14T06:28:02;21.04;91.06
77523;SHT31;66637;-29.628;-49.938;2023-12-14T06:31:49;21.02;91.12
77523;SHT31;66637;-29.628;-49.938;2023-12-14T06:35:01;21.02;91.17
77523;SHT31;66637;-29.628;-49.938;2023-12-14T06:38:17;21.03;91.08
77523;SHT31;66637;-29.628;-49.938;2023-12-14T06:40:58;21.02;91.13
77523;SHT31;66637;-29.628;-49.938;2023-12-14T06:43:45;21.00;91.14
77523;SHT31;66637;-29.628;-49.938;2023-12-14T06:46:30;20.95;91.04
77523;SHT31;66637;-29.628;-49.938;2023-12-14T06:49:13;20.90;91.12
77523;SHT31;66637;-29.628;-49.938;2023-12-14T06:51:58;20.92;91.20
77523;SHT31;66637;-29.628;-49.938;2023-12-14T06:54:39;20.85;91.12
77523;SHT31;66637;-29.628;-49.938;2023-12-14T06:57:20;20.83;91.19
77523;SHT31;66637;-29.628;-49.938;2023-12-14T07:00:18;20.80;91.28
77523;SHT31;66637;-29.628;-49.938;2023-12-14T07:03:10;20.82;91.26
77523;SHT31;66637;-29.628;-49.938;2023-12-14T07:05:50;20.83;91.28
77523;SHT31;66637;-29.628;-49.938;2023-12-14T07:08:25;20.85;91.32
77523;SHT31;66637;-29.628;-49.938;2023-12-14T07:11:21;20.86;91.35
77523;SHT31;66637;-29.628;-49.938;2023-12-14T07:14:26;20.93;91.34
77523;SHT31;66637;-29.628;-49.938;2023-12-14T07:17:06;21.02;91.34
77523;SHT31;66637;-29.628;-49.938;2023-12-14T07:19:49;21.11;91.35
77523;SHT31;66637;-29.628;-49.938;2023-12-14T07:22:38;21.17;91.16
77523;SHT31;66637;-29.628;-49.938;2023-12-14T07:25:27;21.02;91.02
77523;SHT31;66637;-29.628;-49.938;2023-12-14T07:28:03;20.95;91.03
77523;SHT31;66637;-29.628;-49.938;2023-12-14T07:30:50;20.90;91.17
77523;SHT31;66637;-29.628;-49.938;2023-12-14T07:33:40;20.89;91.23
77523;SHT31;66637;-29.628;-49.938;2023-12-14T07:36:34;20.80;90.99
77523;SHT31;66637;-29.628;-49.938;2023-12-14T07:39:18;20.83;90.85
77523;SHT31;66637;-29.628;-49.938;2023-12-14T07:42:11;20.72;90.94
77523;SHT31;66637;-29.628;-49.938;2023-12-14T07:45:00;20.69;90.98
77523;SHT31;66637;-29.628;-49.938;2023-12-14T07:48:08;20.68;90.96
77523;SHT31;66637;-29.628;-49.938;2023-12-14T07:51:14;20.69;91.09
77523;SHT31;66637;-29.628;-49.938;2023-12-14T07:54:22;20.68;91.07
77523;SHT31;66637;-29.628;-49.938;2023-12-14T07:57:04;20.65;91.21
77523;SHT31;66637;-29.628;-49.938;2023-12-14T07:59:46;20.68;91.30
77523;SHT31;66637;-29.628;-49.938;2023-12-14T08:02:24;20.69;91.42
77523;SHT31;66637;-29.628;-49.938;2023-12-14T08:05:10;20.73;91.29
77523;SHT31;66637;-29.628;-49.938;2023-12-14T08:08:05;20.77;91.29
77523;SHT31;66637;-29.628;-49.938;2023-12-14T08:10:52;20.75;91.23
77523;SHT31;66637;-29.628;-49.938;2023-12-14T08:13:44;20.72;91.14
77523;SHT31;66637;-29.628;-49.938;2023-12-14T08:16:29;20.69;91.22
77523;SHT31;66637;-29.628;-49.938;2023-12-14T08:19:01;20.65;91.22
77523;SHT31;66637;-29.628;-49.938;2023-12-14T08:21:42;20.71;91.18
77523;SHT31;66637;-29.628;-49.938;2023-12-14T08:24:28;20.73;91.19
77523;SHT31;66637;-29.628;-49.938;2023-12-14T08:27:33;20.75;91.16
77523;SHT31;66637;-29.628;-49.938;2023-12-14T08:30:30;20.79;91.13
77523;SHT31;66637;-29.628;-49.938;2023-12-14T08:33:16;20.77;91.00
77523;SHT31;66637;-29.628;-49.938;2023-12-14T08:35:55;20.79;91.06
77523;SHT31;66637;-29.628;-49.938;2023-12-14T08:38:49;20.85;91.00
77523;SHT31;66637;-29.628;-49.938;2023-12-14T08:41:46;20.89;90.75
77523;SHT31;66637;-29.628;-49.938;2023-12-14T08:44:29;20.96;90.68
77523;SHT31;66637;-29.628;-49.938;2023-12-14T08:47:36;21.11;90.45
77523;SHT31;66637;-29.628;-49.938;2023-12-14T08:50:24;21.53;89.15
77523;SHT31;66637;-29.628;-49.938;2023-12-14T08:53:09;21.46;89.34
77523;SHT31;66637;-29.628;-49.938;2023-12-14T08:55:41;21.30;89.45
77523;SHT31;66637;-29.628;-49.938;2023-12-14T08:58:28;21.22;89.39
77523;SHT31;66637;-29.628;-49.938;2023-12-14T09:01:20;21.09;89.84
77523;SHT31;66637;-29.628;-49.938;2023-12-14T09:04:09;21.07;89.74
77523;SHT31;66637;-29.628;-49.938;2023-12-14T09:06:42;21.31;89.28
77523;SHT31;66637;-29.628;-49.938;2023-12-14T09:09:31;21.57;89.14
77523;SHT31;66637;-29.628;-49.938;2023-12-14T09:12:27;21.60;88.70
77523;SHT31;66637;-29.628;-49.938;2023-12-14T09:15:04;21.71;88.58
77523;SHT31;66637;-29.628;-49.938;2023-12-14T09:17:52;21.80;88.43
77523;SHT31;66637;-29.628;-49.938;2023-12-14T09:20:34;21.85;88.03
77523;SHT31;66637;-29.628;-49.938;2023-12-14T09:23:38;22.00;87.72
77523;SHT31;66637;-29.628;-49.938;2023-12-14T09:26:31;22.18;87.43
77523;SHT31;66637;-29.628;-49.938;2023-12-14T09:29:26;22.19;87.31
77523;SHT31;66637;-29.628;-49.938;2023-12-14T09:32:13;22.33;87.24
77523;SHT31;66637;-29.628;-49.938;2023-12-14T09:35:03;22.48;86.83
77523;SHT31;66637;-29.628;-49.938;2023-12-14T09:37:44;22.52;86.59
77523;SHT31;66637;-29.628;-49.938;2023-12-14T09:40:18;22.67;86.22
77523;SHT31;66637;-29.628;-49.938;2023-12-14T09:43:06;22.80;86.07
77523;SHT31;66637;-29.628;-49.938;2023-12-14T09:45:56;22.93;85.71
77523;SHT31;66637;-29.628;-49.938;2023-12-14T09:48:37;23.02;85.19
77523;SHT31;66637;-29.628;-49.938;2023-12-14T09:51:44;25.20;81.20
77523;SHT31;66637;-29.628;-49.938;2023-12-14T09:54:32;26.39;76.11
77523;SHT31;66637;-29.628;-49.938;2023-12-14T09:57:40;26.74;74.50
77523;SHT31;66637;-29.628;-49.938;2023-12-14T10:00:40;27.66;72.11
77523;SHT31;66637;-29.628;-49.938;2023-12-14T10:03:31;27.65;70.85
77523;SHT31;66637;-29.628;-49.938;2023-12-14T10:06:24;28.06;70.95
77523;SHT31;66637;-29.628;-49.938;2023-12-14T10:09:10;28.13;69.88
77523;SHT31;66637;-29.628;-49.938;2023-12-14T10:12:08;27.38;72.49
77523;SHT31;66637;-29.628;-49.938;2023-12-14T10:15:05;27.27;73.48
77523;SHT31;66637;-29.628;-49.938;2023-12-14T10:17:39;26.90;73.59
77523;SHT31;66637;-29.628;-49.938;2023-12-14T10:20:43;25.95;75.52
77523;SHT31;66637;-29.628;-49.938;2023-12-14T10:23:40;25.03;78.42
77523;SHT31;66637;-29.628;-49.938;2023-12-14T10:26:36;25.15;78.75
77523;SHT31;66637;-29.628;-49.938;2023-12-14T10:29:22;25.11;78.45
77523;SHT31;66637;-29.628;-49.938;2023-12-14T10:32:12;24.79;79.37
77523;SHT31;66637;-29.628;-49.938;2023-12-14T10:34:57;24.84;79.28
77523;SHT31;66637;-29.628;-49.938;2023-12-14T10:37:49;24.88;79.76
77523;SHT31;66637;-29.628;-49.938;2023-12-14T10:40:42;24.41;80.18
77523;SHT31;66637;-29.628;-49.938;2023-12-14T10:43:23;24.06;81.33
77523;SHT31;66637;-29.628;-49.938;2023-12-14T10:46:01;23.81;81.89
77523;SHT31;66637;-29.628;-49.938;2023-12-14T10:48:45;23.84;82.42
77523;SHT31;66637;-29.628;-49.938;2023-12-14T10:51:24;23.76;82.17
77523;SHT31;66637;-29.628;-49.938;2023-12-14T10:54:08;23.67;82.75
77523;SHT31;66637;-29.628;-49.938;2023-12-14T10:56:47;23.82;82.57
77523;SHT31;66637;-29.628;-49.938;2023-12-14T10:59:30;23.96;82.46
77523;SHT31;66637;-29.628;-49.938;2023-12-14T11:02:14;24.05;81.72
77523;SHT31;66637;-29.628;-49.938;2023-12-14T11:05:00;24.69;81.37
77523;SHT31;66637;-29.628;-49.938;2023-12-14T11:07:51;24.52;80.17
77523;SHT31;66637;-29.628;-49.938;2023-12-14T11:11:03;24.32;81.38
77523;SHT31;66637;-29.628;-49.938;2023-12-14T11:13:53;24.32;81.02
77523;SHT31;66637;-29.628;-49.938;2023-12-14T11:16:34;24.20;81.25
77523;SHT31;66637;-29.628;-49.938;2023-12-14T11:19:28;23.99;81.48
77523;SHT31;66637;-29.628;-49.938;2023-12-14T11:22:12;24.06;82.15
77523;SHT31;66637;-29.628;-49.938;2023-12-14T11:24:51;24.12;81.60
77523;SHT31;66637;-29.628;-49.938;2023-12-14T11:27:30;24.06;81.47
77523;SHT31;66637;-29.628;-49.938;2023-12-14T11:30:04;24.33;81.29
77523;SHT31;66637;-29.628;-49.938;2023-12-14T11:32:35;24.32;80.95
77523;SHT31;66637;-29.628;-49.938;2023-12-14T11:35:07;24.18;81.34
77523;SHT31;66637;-29.628;-49.938;2023-12-14T11:37:43;24.33;80.80
77523;SHT31;66637;-29.628;-49.938;2023-12-14T11:40:16;24.79;79.98
77523;SHT31;66637;-29.628;-49.938;2023-12-14T11:42:59;25.46;78.58
77523;SHT31;66637;-29.628;-49.938;2023-12-14T11:45:30;25.55;78.00
77523;SHT31;66637;-29.628;-49.938;2023-12-14T11:48:02;25.99;77.24
77523;SHT31;66637;-29.628;-49.938;2023-12-14T11:50:39;26.39;76.36
77523;SHT31;66637;-29.628;-49.938;2023-12-14T11:53:13;25.95;76.94
77523;SHT31;66637;-29.628;-49.938;2023-12-14T11:55:46;25.83;77.42
77523;SHT31;66637;-29.628;-49.938;2023-12-14T11:58:21;25.41;77.79
77523;SHT31;66637;-29.628;-49.938;2023-12-14T12:01:19;25.38;78.71
77523;SHT31;66637;-29.628;-49.938;2023-12-14T12:03:55;26.00;76.68
77523;SHT31;66637;-29.628;-49.938;2023-12-14T12:06:32;26.32;76.25
77523;SHT31;66637;-29.628;-49.938;2023-12-14T12:09:05;26.74;75.10
77523;SHT31;66637;-29.628;-49.938;2023-12-14T12:11:40;26.67;75.35
77523;SHT31;66637;-29.628;-49.938;2023-12-14T12:14:14;26.70;74.60
77523;SHT31;66637;-29.628;-49.938;2023-12-14T12:16:47;26.63;75.71
77523;SHT31;66637;-29.628;-49.938;2023-12-14T12:19:21;26.29;76.11
77523;SHT31;66637;-29.628;-49.938;2023-12-14T12:21:53;25.85;76.81
77523;SHT31;66637;-29.628;-49.938;2023-12-14T12:24:25;26.57;75.67
77523;SHT31;66637;-29.628;-49.938;2023-12-14T12:27:02;25.96;76.04
77523;SHT31;66637;-29.628;-49.938;2023-12-14T12:29:37;25.83;77.03
77523;SHT31;66637;-29.628;-49.938;2023-12-14T12:32:09;26.40;75.72
77523;SHT31;66637;-29.628;-49.938;2023-12-14T12:34:42;26.83;75.07
77523;SHT31;66637;-29.628;-49.938;2023-12-14T12:37:14;26.81;75.18
77523;SHT31;66637;-29.628;-49.938;2023-12-14T12:39:46;26.74;75.26
77523;SHT31;66637;-29.628;-49.938;2023-12-14T12:42:21;26.88;74.51
77523;SHT31;66637;-29.628;-49.938;2023-12-14T12:44:54;26.99;74.97
77523;SHT31;66637;-29.628;-49.938;2023-12-14T12:47:28;27.11;74.19
77523;SHT31;66637;-29.628;-49.938;2023-12-14T12:50:00;26.83;74.58
77523;SHT31;66637;-29.628;-49.938;2023-12-14T12:52:31;27.25;73.81
77523;SHT31;66637;-29.628;-49.938;2023-12-14T12:55:06;27.24;75.12
77523;SHT31;66637;-29.628;-49.938;2023-12-14T12:57:37;27.11;73.57
77523;SHT31;66637;-29.628;-49.938;2023-12-14T13:00:11;26.91;75.18
77523;SHT31;66637;-29.628;-49.938;2023-12-14T13:02:45;26.70;75.98
77523;SHT31;66637;-29.628;-49.938;2023-12-14T13:05:17;26.53;75.28
77523;SHT31;66637;-29.628;-49.938;2023-12-14T13:07:50;26.88;75.57
77523;SHT31;66637;-29.628;-49.938;2023-12-14T13:10:21;26.94;74.28
77523;SHT31;66637;-29.628;-49.938;2023-12-14T13:13:00;26.39;74.79
77523;SHT31;66637;-29.628;-49.938;2023-12-14T13:15:37;26.24;77.64
77523;SHT31;66637;-29.628;-49.938;2023-12-14T13:18:08;25.32;78.49
77523;SHT31;66637;-29.628;-49.938;2023-12-14T13:20:39;25.12;79.23
77523;SHT31;66637;-29.628;-49.938;2023-12-14T13:23:13;25.42;78.85
77523;SHT31;66637;-29.628;-49.938;2023-12-14T13:25:44;25.43;79.05
77523;SHT31;66637;-29.628;-49.938;2023-12-14T13:28:16;25.85;77.96
77523;SHT31;66637;-29.628;-49.938;2023-12-14T13:30:49;26.64;75.57
77523;SHT31;66637;-29.628;-49.938;2023-12-14T13:33:21;26.83;74.96
77523;SHT31;66637;-29.628;-49.938;2023-12-14T13:35:58;27.11;74.85
77523;SHT31;66637;-29.628;-49.938;2023-12-14T13:38:32;26.99;74.18
77523;SHT31;66637;-29.628;-49.938;2023-12-14T13:41:08;27.12;74.82
77523;SHT31;66637;-29.628;-49.938;2023-12-14T13:43:40;27.38;73.78
77523;SHT31;66637;-29.628;-49.938;2023-12-14T13:46:12;27.55;73.31
77523;SHT31;66637;-29.628;-49.938;2023-12-14T13:48:50;27.18;74.00
77523;SHT31;66637;-29.628;-49.938;2023-12-14T13:51:22;27.21;74.70
77523;SHT31;66637;-29.628;-49.938;2023-12-14T13:53:53;26.77;75.37
77523;SHT31;66637;-29.628;-49.938;2023-12-14T13:56:26;26.84;75.01
77523;SHT31;66637;-29.628;-49.938;2023-12-14T13:58:59;27.50;73.63
77523;SHT31;66637;-29.628;-49.938;2023-12-14T14:01:30;27.92;72.99
77523;SHT31;66637;-29.628;-49.938;2023-12-14T14:04:02;27.37;72.80
77523;SHT31;66637;-29.628;-49.938;2023-12-14T14:06:33;26.77;74.94
77523;SHT31;66637;-29.628;-49.938;2023-12-14T14:09:04;26.81;76.42
77523;SHT31;66637;-29.628;-49.938;2023-12-14T14:11:38;26.92;74.61
77523;SHT31;66637;-29.628;-49.938;2023-12-14T14:14:19;26.44;75.60
77523;SHT31;66637;-29.628;-49.938;2023-12-14T14:16:51;26.27;76.44
77523;SHT31;66637;-29.628;-49.938;2023-12-14T14:19:22;26.36;76.59
77523;SHT31;66637;-29.628;-49.938;2023-12-14T14:21:55;27.04;74.83
77523;SHT31;66637;-29.628;-49.938;2023-12-14T14:24:26;26.87;75.30
77523;SHT31;66637;-29.628;-49.938;2023-12-14T14:26:58;26.87;74.91
77523;SHT31;66637;-29.628;-49.938;2023-12-14T14:29:29;26.98;75.32
77523;SHT31;66637;-29.628;-49.938;2023-12-14T14:32:00;26.77;75.59
77523;SHT31;66637;-29.628;-49.938;2023-12-14T14:34:31;26.36;75.94
77523;SHT31;66637;-29.628;-49.938;2023-12-14T14:37:04;26.37;76.63
77523;SHT31;66637;-29.628;-49.938;2023-12-14T14:39:35;26.48;76.53
77523;SHT31;66637;-29.628;-49.938;2023-12-14T14:42:10;26.40;76.35
77523;SHT31;66637;-29.628;-49.938;2023-12-14T14:44:40;25.99;76.72
77523;SHT31;66637;-29.628;-49.938;2023-12-14T14:47:14;25.82;78.37
77523;SHT31;66637;-29.628;-49.938;2023-12-14T14:49:47;25.82;78.09
77523;SHT31;66637;-29.628;-49.938;2023-12-14T14:52:19;26.36;77.65
77523;SHT31;66637;-29.628;-49.938;2023-12-14T14:54:56;26.33;77.01
77523;SHT31;66637;-29.628;-49.938;2023-12-14T14:57:27;26.41;76.16
77523;SHT31;66637;-29.628;-49.938;2023-12-14T14:59:59;26.64;76.39
77523;SHT31;66637;-29.628;-49.938;2023-12-14T15:02:31;26.54;77.07
77523;SHT31;66637;-29.628;-49.938;2023-12-14T15:05:03;26.53;76.63
77523;SHT31;66637;-29.628;-49.938;2023-12-14T15:07:35;26.46;76.28
77523;SHT31;66637;-29.628;-49.938;2023-12-14T15:10:07;27.21;75.32
77523;SHT31;66637;-29.628;-49.938;2023-12-14T15:12:39;26.74;75.86
77523;SHT31;66637;-29.628;-49.938;2023-12-14T15:15:10;27.12;74.75
77523;SHT31;66637;-29.628;-49.938;2023-12-14T15:17:40;26.95;75.63
77523;SHT31;66637;-29.628;-49.938;2023-12-14T15:20:11;26.90;75.33
77523;SHT31;66637;-29.628;-49.938;2023-12-14T15:22:43;27.31;75.02
77523;SHT31;66637;-29.628;-49.938;2023-12-14T15:25:15;27.31;73.25
77523;SHT31;66637;-29.628;-49.938;2023-12-14T15:27:48;27.05;74.65
77523;SHT31;66637;-29.628;-49.938;2023-12-14T15:30:21;26.90;75.68
77523;SHT31;66637;-29.628;-49.938;2023-12-14T15:32:52;27.08;75.12
77523;SHT31;66637;-29.628;-49.938;2023-12-14T15:35:24;27.27;74.66
77523;SHT31;66637;-29.628;-49.938;2023-12-14T15:37:56;27.14;73.75
77523;SHT31;66637;-29.628;-49.938;2023-12-14T15:40:28;27.55;74.61
77523;SHT31;66637;-29.628;-49.938;2023-12-14T15:43:00;28.17;72.90
77523;SHT31;66637;-29.628;-49.938;2023-12-14T15:45:33;28.74;71.22
77523;SHT31;66637;-29.628;-49.938;2023-12-14T15:48:04;28.09;71.63
77523;SHT31;66637;-29.628;-49.938;2023-12-14T15:50:39;28.28;72.91
77523;SHT31;66637;-29.628;-49.938;2023-12-14T15:53:17;28.20;72.29
77523;SHT31;66637;-29.628;-49.938;2023-12-14T15:55:47;28.34;71.71
77523;SHT31;66637;-29.628;-49.938;2023-12-14T15:58:19;28.50;72.21
77523;SHT31;66637;-29.628;-49.938;2023-12-14T16:00:51;28.71;71.04
77523;SHT31;66637;-29.628;-49.938;2023-12-14T16:03:21;28.85;70.82
77523;SHT31;66637;-29.628;-49.938;2023-12-14T16:05:52;28.96;70.97
77523;SHT31;66637;-29.628;-49.938;2023-12-14T16:08:22;29.14;70.40
77523;SHT31;66637;-29.628;-49.938;2023-12-14T16:10:53;29.04;70.90
77523;SHT31;66637;-29.628;-49.938;2023-12-14T16:13:26;29.27;70.66
77523;SHT31;66637;-29.628;-49.938;2023-12-14T16:15:59;29.59;69.66
77523;SHT31;66637;-29.628;-49.938;2023-12-14T16:18:30;29.43;68.93
77523;SHT31;66637;-29.628;-49.938;2023-12-14T16:21:01;29.37;70.36
77523;SHT31;66637;-29.628;-49.938;2023-12-14T16:23:33;29.50;69.51